Terminal Aerodrome Forecast
Issued by NWS Charleston, WV

Current Version | Previous Version | Graphics & Text | Print | Product List | Glossary On
Versions: 1 2 3 4 5 6 7 8 9 10 11 12 13 14 15 16 17 18 19
430
FTUS41 KRLX 061505 AAA
TAFPKB
TAF AMD
KPKB 061505Z 0615/0712 22005KT P6SM SCT150
     FM070000 00000KT P6SM FEW040=

USA.gov is the U.S. government's official web portal to all federal, state and local government web resources and services.